createdAt,value
2023-01-17T00:00:50.708Z,92508.84
2023-01-17T00:03:17.098Z,92510.31
2023-01-17T00:06:01.779Z,92498.75
2023-01-17T00:08:46.185Z,92512.72
2023-01-17T00:11:12.595Z,92518.03
2023-01-17T00:13:40.055Z,92525.34
2023-01-17T00:16:06.989Z,92511.88
2023-01-17T00:18:33.503Z,92511.91
2023-01-17T00:21:17.964Z,92514.31
2023-01-17T00:24:02.435Z,92522.25
2023-01-17T00:26:31.482Z,92536.41
2023-01-17T00:28:58.183Z,92527.88
2023-01-17T00:31:24.287Z,92535.53
2023-01-17T00:33:50.276Z,92543.78
2023-01-17T00:36:16.337Z,92557.31
2023-01-17T00:38:42.397Z,92550.72
2023-01-17T00:41:10.861Z,92553.88
2023-01-17T00:43:55.796Z,92558.38
2023-01-17T00:46:41.084Z,92549.16
2023-01-17T00:49:26.471Z,92564.91
2023-01-17T00:52:11.108Z,92571.94
2023-01-17T00:54:55.677Z,92586.13
2023-01-17T00:57:40.422Z,92569.44
2023-01-17T01:00:26.415Z,92576.56
2023-01-17T01:03:11.561Z,92573.88
2023-01-17T01:05:56.455Z,92572.38
2023-01-17T01:08:43.921Z,92568.09
2023-01-17T01:11:30.835Z,92589.44
2023-01-17T01:14:16.859Z,92566.25
2023-01-17T01:17:01.429Z,92586.97
2023-01-17T01:19:46.994Z,92612.59
2023-01-17T01:22:31.496Z,92602.69
2023-01-17T01:25:16.217Z,92599.00
2023-01-17T01:28:01.154Z,92587.38
2023-01-17T01:30:45.946Z,92576.13
2023-01-17T01:33:20.205Z,92584.72
2023-01-17T01:35:49.795Z,92595.53
2023-01-17T01:38:16.837Z,92582.88
2023-01-17T01:40:45.400Z,92569.88
2023-01-17T01:43:14.067Z,92581.06
2023-01-17T01:45:44.259Z,92589.19
2023-01-17T01:48:23.545Z,92579.03
2023-01-17T01:50:51.127Z,92587.59
2023-01-17T01:53:19.867Z,92591.78
2023-01-17T01:55:48.577Z,92595.63
2023-01-17T01:58:18.380Z,92597.66
2023-01-17T02:00:44.944Z,92589.91
2023-01-17T02:03:15.657Z,92577.44
2023-01-17T02:05:43.230Z,92578.44
2023-01-17T02:08:14.604Z,92578.81
2023-01-17T02:10:43.246Z,92582.41
2023-01-17T02:13:11.596Z,92594.09
2023-01-17T02:15:49.097Z,92602.38
2023-01-17T02:18:25.599Z,92583.03
2023-01-17T02:21:05.197Z,92586.38
2023-01-17T02:24:14.059Z,92579.66
2023-01-17T02:27:03.059Z,92585.31
2023-01-17T02:30:04.686Z,92589.38
2023-01-17T02:32:43.378Z,92585.81
2023-01-17T02:35:15.555Z,92589.91
2023-01-17T02:37:50.153Z,92592.72
2023-01-17T02:40:22.228Z,92589.69
2023-01-17T02:43:04.981Z,92580.00
2023-01-17T02:45:31.362Z,92585.16
2023-01-17T02:47:58.404Z,92583.72
2023-01-17T02:50:31.101Z,92575.69
2023-01-17T02:53:11.941Z,92574.81
2023-01-17T02:55:50.788Z,92572.16
2023-01-17T02:58:39.379Z,92574.22
2023-01-17T03:01:16.685Z,92571.88
2023-01-17T03:03:51.297Z,92565.56
2023-01-17T03:06:22.427Z,92576.09
2023-01-17T03:08:50.764Z,92591.41
2023-01-17T03:11:17.589Z,92580.94
2023-01-17T03:13:44.238Z,92581.63
2023-01-17T03:16:15.251Z,92590.84
2023-01-17T03:18:41.857Z,92588.25
2023-01-17T03:21:08.899Z,92585.75
2023-01-17T03:23:35.309Z,92584.06
2023-01-17T03:26:01.784Z,92592.41
2023-01-17T03:28:28.214Z,92583.88
2023-01-17T03:30:54.710Z,92589.34
2023-01-17T03:33:21.189Z,92586.09
2023-01-17T03:35:47.675Z,92587.69
2023-01-17T03:38:15.083Z,92583.56
2023-01-17T03:40:41.740Z,92591.44
2023-01-17T03:43:08.265Z,92582.69
2023-01-17T03:45:34.760Z,92589.97
2023-01-17T03:48:02.554Z,92589.44
2023-01-17T03:50:28.992Z,92591.13
2023-01-17T03:52:55.469Z,92591.59
2023-01-17T03:55:22.625Z,92595.44
2023-01-17T03:57:49.078Z,92595.63
2023-01-17T04:00:16.432Z,92589.66
2023-01-17T04:02:42.999Z,92583.84
2023-01-17T04:05:09.524Z,92594.78
2023-01-17T04:07:35.915Z,92588.94
2023-01-17T04:10:02.436Z,92585.66
2023-01-17T04:12:29.486Z,92588.22
2023-01-17T04:14:55.983Z,92595.03
2023-01-17T04:17:22.573Z,92593.25
2023-01-17T04:19:51.025Z,92592.47
2023-01-17T04:22:17.597Z,92588.22
2023-01-17T04:24:43.964Z,92580.84
2023-01-17T04:27:13.555Z,92578.50
2023-01-17T04:29:40.586Z,92583.50
2023-01-17T04:32:07.007Z,92594.88
2023-01-17T04:34:33.458Z,92585.81
2023-01-17T04:36:59.893Z,92586.19
2023-01-17T04:39:26.301Z,92592.81
2023-01-17T04:41:52.744Z,92595.84
2023-01-17T04:44:19.106Z,92588.63
2023-01-17T04:46:46.221Z,92588.84
2023-01-17T04:49:12.664Z,92591.34
2023-01-17T04:51:39.101Z,92583.97
2023-01-17T04:54:05.576Z,92580.88
2023-01-17T04:56:31.988Z,92579.00
2023-01-17T04:58:58.753Z,92585.84
2023-01-17T05:01:31.708Z,92637.06
2023-01-17T05:03:58.865Z,92591.53
2023-01-17T05:06:25.271Z,92592.31
2023-01-17T05:08:54.897Z,92589.59
2023-01-17T05:11:23.930Z,92598.59
2023-01-17T05:13:50.385Z,92591.72
2023-01-17T05:16:18.431Z,92589.56
2023-01-17T05:18:44.928Z,92600.59
2023-01-17T05:21:12.159Z,92599.75
2023-01-17T05:23:39.792Z,92607.81
2023-01-17T05:26:06.458Z,92616.25
2023-01-17T05:28:32.923Z,92612.25
2023-01-17T05:30:59.534Z,92619.47
2023-01-17T05:33:26.361Z,92625.56
2023-01-17T05:35:52.994Z,92608.88
2023-01-17T05:38:20.393Z,92621.81
2023-01-17T05:40:46.913Z,92628.09
2023-01-17T05:43:13.327Z,92631.63
2023-01-17T05:45:39.832Z,92635.47
2023-01-17T05:48:06.656Z,92632.63
2023-01-17T05:50:34.745Z,92635.34
2023-01-17T05:53:03.978Z,92636.88
2023-01-17T05:55:32.323Z,92632.03
2023-01-17T05:58:00.917Z,92642.56
2023-01-17T06:00:30.313Z,92644.31
2023-01-17T06:02:58.292Z,92635.78
2023-01-17T06:05:26.042Z,92634.97
2023-01-17T06:07:52.621Z,92637.31
2023-01-17T06:10:20.674Z,92635.47
2023-01-17T06:12:48.118Z,92627.69
2023-01-17T06:15:16.316Z,92630.63
2023-01-17T06:17:42.999Z,92627.06
2023-01-17T06:20:11.267Z,92628.28
2023-01-17T06:22:37.872Z,92621.75
2023-01-17T06:25:05.161Z,92617.84
2023-01-17T06:27:31.656Z,92624.31
2023-01-17T06:29:58.961Z,92615.53
2023-01-17T06:32:25.439Z,92620.25
2023-01-17T06:34:51.834Z,92625.69
2023-01-17T06:37:18.270Z,92626.53
2023-01-17T06:39:45.019Z,92620.91
2023-01-17T06:42:11.485Z,92617.63
2023-01-17T06:44:38.192Z,92615.72
2023-01-17T06:47:05.386Z,92629.13
2023-01-17T06:49:31.995Z,92619.44
2023-01-17T06:51:58.424Z,92625.44
2023-01-17T06:54:24.931Z,92628.75
2023-01-17T06:56:51.424Z,92630.91
2023-01-17T06:59:17.902Z,92625.44
2023-01-17T07:01:44.397Z,92637.47
2023-01-17T07:04:11.517Z,92620.97
2023-01-17T07:06:38.039Z,92616.91
2023-01-17T07:09:04.913Z,92622.16
2023-01-17T07:11:31.814Z,92619.63
2023-01-17T07:13:58.264Z,92608.22
2023-01-17T07:16:24.885Z,92617.31
2023-01-17T07:18:51.362Z,92612.28
2023-01-17T07:21:18.410Z,92618.06
2023-01-17T07:23:44.835Z,92615.75
2023-01-17T07:26:11.200Z,92614.22
2023-01-17T07:28:37.573Z,92614.56
2023-01-17T07:31:06.407Z,92618.06
2023-01-17T07:33:32.827Z,92622.34
2023-01-17T07:35:59.251Z,92617.66
2023-01-17T07:38:26.360Z,92621.34
2023-01-17T07:40:57.114Z,92621.31
2023-01-17T07:43:23.567Z,92625.56
2023-01-17T07:45:50.954Z,92611.66
2023-01-17T07:48:17.938Z,92612.41
2023-01-17T07:50:44.612Z,92605.63
2023-01-17T07:53:14.019Z,92597.09
2023-01-17T07:55:41.095Z,92584.66
2023-01-17T07:58:07.596Z,92575.34
2023-01-17T08:00:34.033Z,92581.16
2023-01-17T08:03:00.821Z,92576.69
2023-01-17T08:05:27.704Z,92587.16
2023-01-17T08:07:54.308Z,92580.75
2023-01-17T08:10:21.902Z,92580.69
2023-01-17T08:12:50.051Z,92580.84
2023-01-17T08:15:17.605Z,92584.72
2023-01-17T08:17:47.652Z,92580.50
2023-01-17T08:20:14.561Z,92581.66
2023-01-17T08:22:41.178Z,92574.44
2023-01-17T08:25:08.652Z,92577.44
2023-01-17T08:27:36.208Z,92587.16
2023-01-17T08:30:04.217Z,92581.47
2023-01-17T08:32:30.766Z,92570.75
2023-01-17T08:34:57.181Z,92563.06
2023-01-17T08:37:24.015Z,92563.50
2023-01-17T08:39:50.490Z,92569.31
2023-01-17T08:42:16.937Z,92564.50
2023-01-17T08:44:43.399Z,92568.00
2023-01-17T08:47:10.505Z,92561.31
2023-01-17T08:49:36.912Z,92556.44
2023-01-17T08:52:05.180Z,92558.13
2023-01-17T08:54:32.928Z,92544.09
2023-01-17T08:56:59.416Z,92547.16
2023-01-17T08:59:26.165Z,92556.97
2023-01-17T09:01:54.671Z,92557.38
2023-01-17T09:04:21.876Z,92562.63
2023-01-17T09:06:48.466Z,92569.28
2023-01-17T09:09:16.114Z,92565.56
2023-01-17T09:11:42.566Z,92560.56
2023-01-17T09:14:11.937Z,92555.50
2023-01-17T09:16:38.429Z,92560.44
2023-01-17T09:19:04.856Z,92558.91
2023-01-17T09:21:32.285Z,92558.88
2023-01-17T09:23:58.669Z,92566.06
2023-01-17T09:26:27.207Z,92564.97
2023-01-17T09:28:54.142Z,92563.06
2023-01-17T09:31:21.935Z,92554.91
2023-01-17T09:33:48.707Z,92552.03
2023-01-17T09:36:15.407Z,92533.88
2023-01-17T09:38:42.711Z,92540.94
2023-01-17T09:41:22.289Z,92542.84
2023-01-17T09:43:53.038Z,92539.38
2023-01-17T09:46:23.816Z,92532.88
2023-01-17T09:48:56.952Z,92524.88
2023-01-17T09:51:23.999Z,92517.50
2023-01-17T09:53:52.718Z,92504.63
2023-01-17T09:56:27.038Z,92497.03
2023-01-17T09:59:19.165Z,92484.19
2023-01-17T10:01:54.881Z,92464.66
2023-01-17T10:04:39.897Z,92463.34
2023-01-17T10:07:19.256Z,92458.50
2023-01-17T10:10:01.981Z,92459.69
2023-01-17T10:12:37.362Z,92468.47
2023-01-17T10:15:19.251Z,92464.56
2023-01-17T10:17:53.060Z,92460.50
2023-01-17T10:20:43.534Z,92449.56
2023-01-17T10:23:24.485Z,92448.88
2023-01-17T10:25:54.501Z,92435.31
2023-01-17T10:28:25.726Z,92448.50
2023-01-17T10:30:58.078Z,92449.31
2023-01-17T10:33:28.881Z,92440.72
2023-01-17T10:35:57.285Z,92442.41
2023-01-17T10:38:31.466Z,92441.81
2023-01-17T10:41:04.185Z,92438.41
2023-01-17T10:43:43.515Z,92435.25
2023-01-17T10:46:16.837Z,92430.97
2023-01-17T10:48:45.924Z,92433.44
2023-01-17T10:51:29.582Z,92421.72
2023-01-17T10:54:09.176Z,92417.13
2023-01-17T10:56:39.297Z,92416.28
2023-01-17T10:59:17.377Z,92406.25
2023-01-17T11:01:51.061Z,92410.19
2023-01-17T11:04:21.208Z,92397.03
2023-01-17T11:07:08.141Z,92404.84
2023-01-17T11:09:38.415Z,92383.09
2023-01-17T11:12:12.381Z,92380.13
2023-01-17T11:14:38.876Z,92380.81
2023-01-17T11:17:06.858Z,92377.06
2023-01-17T11:19:35.617Z,92369.03
2023-01-17T11:22:04.849Z,92366.78
2023-01-17T11:24:35.536Z,92361.13
2023-01-17T11:27:03.987Z,92360.00
2023-01-17T11:29:35.980Z,92361.19
2023-01-17T11:32:28.731Z,92346.66
2023-01-17T11:35:16.466Z,92352.97
2023-01-17T11:38:04.833Z,92357.81
2023-01-17T11:40:36.141Z,92344.22
2023-01-17T11:43:18.189Z,92352.06
2023-01-17T11:45:46.484Z,92347.00
2023-01-17T11:48:17.161Z,92344.56
2023-01-17T11:50:47.020Z,92347.91
2023-01-17T11:53:24.442Z,92347.19
2023-01-17T11:55:55.533Z,92334.78
2023-01-17T11:58:23.381Z,92330.84
2023-01-17T12:00:58.375Z,92323.94
2023-01-17T12:03:39.130Z,92318.47
2023-01-17T12:06:11.730Z,92313.00
2023-01-17T12:08:52.760Z,92307.06
2023-01-17T12:11:26.094Z,92299.25
2023-01-17T12:14:03.322Z,92302.84
2023-01-17T12:16:50.461Z,92298.13
2023-01-17T12:19:40.579Z,92284.34
2023-01-17T12:22:21.122Z,92273.97
2023-01-17T12:25:02.742Z,92279.59
2023-01-17T12:27:41.990Z,92272.13
2023-01-17T12:30:25.696Z,92262.75
2023-01-17T12:33:15.656Z,92251.56
2023-01-17T12:35:49.867Z,92248.94
2023-01-17T12:38:32.220Z,92245.41
2023-01-17T12:41:05.632Z,92240.94
2023-01-17T12:43:36.458Z,92235.06
2023-01-17T12:46:10.286Z,92233.34
2023-01-17T12:48:38.564Z,92226.91
2023-01-17T12:51:12.577Z,92213.75
2023-01-17T12:53:46.566Z,92224.13
2023-01-17T12:56:23.528Z,92213.09
2023-01-17T12:58:54.939Z,92214.84
2023-01-17T13:01:28.159Z,92208.47
2023-01-17T13:04:07.549Z,92201.53
2023-01-17T13:06:47.431Z,92198.78
2023-01-17T13:09:18.653Z,92186.50
2023-01-17T13:11:50.052Z,92189.03
2023-01-17T13:14:16.490Z,92191.38
2023-01-17T13:16:49.643Z,92174.63
2023-01-17T13:19:22.112Z,92190.06
2023-01-17T13:21:49.837Z,92183.63
2023-01-17T13:24:25.140Z,92183.88
2023-01-17T13:27:16.639Z,92173.94
2023-01-17T13:29:55.541Z,92183.31
2023-01-17T13:32:48.673Z,92168.78
2023-01-17T13:35:24.543Z,92165.25
2023-01-17T13:38:11.911Z,92163.34
2023-01-17T13:40:49.157Z,92167.56
2023-01-17T13:43:21.544Z,92164.94
2023-01-17T13:45:53.254Z,92157.13
2023-01-17T13:48:25.763Z,92162.03
2023-01-17T13:50:55.089Z,92164.03
2023-01-17T13:53:56.370Z,92159.22
2023-01-17T13:56:28.650Z,92149.41
2023-01-17T13:59:01.278Z,92142.66
2023-01-17T14:01:51.420Z,92135.72
2023-01-17T14:04:18.167Z,92121.19
2023-01-17T14:06:48.168Z,92130.03
2023-01-17T14:09:18.946Z,92124.63
2023-01-17T14:12:23.875Z,92123.19
2023-01-17T14:14:55.895Z,92118.78
2023-01-17T14:17:36.335Z,92120.78
2023-01-17T14:20:44.960Z,92119.59
2023-01-17T14:23:37.176Z,92112.34
2023-01-17T14:26:29.750Z,92114.38
2023-01-17T14:28:58.375Z,92108.38
2023-01-17T14:31:25.950Z,92099.84
2023-01-17T14:33:55.030Z,92090.94
2023-01-17T14:36:28.807Z,92066.81
2023-01-17T14:38:56.005Z,92046.47
2023-01-17T14:41:25.210Z,92058.03
2023-01-17T14:43:52.098Z,92056.31
2023-01-17T14:46:24.911Z,92058.91
2023-01-17T14:48:58.366Z,92066.69
2023-01-17T14:51:24.963Z,92056.69
2023-01-17T14:53:53.819Z,92047.69
2023-01-17T14:56:20.925Z,92064.06
2023-01-17T14:58:47.305Z,92064.44
2023-01-17T15:01:17.097Z,92062.72
2023-01-17T15:03:46.313Z,92065.56
2023-01-17T15:06:18.145Z,92064.34
2023-01-17T15:08:45.065Z,92047.31
2023-01-17T15:11:20.400Z,92059.72
2023-01-17T15:13:58.406Z,92063.69
2023-01-17T15:16:27.241Z,92058.19
2023-01-17T15:18:55.161Z,92062.00
2023-01-17T15:21:24.102Z,92064.78
2023-01-17T15:23:53.933Z,92063.13
2023-01-17T15:26:23.027Z,92058.84
2023-01-17T15:28:50.091Z,92048.72
2023-01-17T15:31:21.335Z,92043.34
2023-01-17T15:33:57.777Z,92044.22
2023-01-17T15:36:29.617Z,92040.06
2023-01-17T15:39:01.161Z,92035.38
2023-01-17T15:41:30.955Z,92021.84
2023-01-17T15:43:58.050Z,92023.09
2023-01-17T15:46:30.437Z,92023.31
2023-01-17T15:49:16.635Z,92017.72
2023-01-17T15:51:50.364Z,92016.53
2023-01-17T15:54:33.751Z,92020.63
2023-01-17T15:57:05.759Z,92014.78
2023-01-17T15:59:43.362Z,92015.00
2023-01-17T16:02:28.323Z,92017.00
2023-01-17T16:04:55.087Z,92015.00
2023-01-17T16:07:27.948Z,92011.72
2023-01-17T16:10:02.350Z,92022.69
2023-01-17T16:12:28.851Z,92013.88
2023-01-17T16:15:11.269Z,92004.25
2023-01-17T16:17:41.835Z,92013.88
2023-01-17T16:20:15.158Z,92010.81
2023-01-17T16:22:42.418Z,92000.69
2023-01-17T16:25:13.275Z,91995.63
2023-01-17T16:27:40.763Z,92000.81
2023-01-17T16:30:08.515Z,92001.78
2023-01-17T16:32:34.941Z,92014.44
2023-01-17T16:35:02.179Z,92019.03
2023-01-17T16:37:28.616Z,92015.41
2023-01-17T16:39:55.031Z,92018.06
2023-01-17T16:42:21.402Z,92017.72
2023-01-17T16:44:47.796Z,92023.00
2023-01-17T16:47:14.182Z,92025.31
2023-01-17T16:49:40.599Z,92030.03
2023-01-17T16:52:07.713Z,92038.81
2023-01-17T16:54:34.151Z,92044.66
2023-01-17T16:57:00.573Z,92038.91
2023-01-17T16:59:34.579Z,92049.25
2023-01-17T17:02:09.341Z,92053.78
2023-01-17T17:04:35.794Z,92054.78
2023-01-17T17:07:02.204Z,92059.72
2023-01-17T17:09:29.371Z,92055.22
2023-01-17T17:11:56.103Z,92055.84
2023-01-17T17:14:22.462Z,92070.78
2023-01-17T17:16:51.202Z,92057.81
2023-01-17T17:19:18.261Z,92083.53
2023-01-17T17:21:45.416Z,92081.88
2023-01-17T17:24:13.125Z,92080.47
2023-01-17T17:26:40.826Z,92086.00
2023-01-17T17:29:09.979Z,92093.56
2023-01-17T17:31:36.740Z,92094.75
2023-01-17T17:34:06.559Z,92111.16
2023-01-17T17:36:33.699Z,92118.19
2023-01-17T17:39:02.707Z,92116.06
2023-01-17T17:41:31.282Z,92118.25
2023-01-17T17:44:00.142Z,92112.34
2023-01-17T17:46:28.441Z,92119.41
2023-01-17T17:48:55.534Z,92115.88
2023-01-17T17:51:27.762Z,92114.19
2023-01-17T17:53:55.081Z,92100.16
2023-01-17T17:56:22.023Z,92075.84
2023-01-17T17:58:48.801Z,92074.53
2023-01-17T18:01:23.343Z,92085.44
2023-01-17T18:03:50.404Z,92072.13
2023-01-17T18:06:17.270Z,92066.19
2023-01-17T18:08:43.759Z,92080.34
2023-01-17T18:11:14.110Z,92090.81
2023-01-17T18:13:42.092Z,92098.41
2023-01-17T18:16:10.957Z,92097.44
2023-01-17T18:18:41.221Z,92099.06
2023-01-17T18:21:10.535Z,92092.25
2023-01-17T18:23:38.256Z,92092.16
2023-01-17T18:26:05.078Z,92090.41
2023-01-17T18:28:34.065Z,92091.81
2023-01-17T18:31:07.279Z,92109.53
2023-01-17T18:33:37.353Z,92115.78
2023-01-17T18:36:08.585Z,92126.22
2023-01-17T18:38:39.716Z,92133.69
2023-01-17T18:41:08.203Z,92136.22
2023-01-17T18:43:35.364Z,92143.59
2023-01-17T18:46:01.795Z,92154.47
2023-01-17T18:48:28.449Z,92149.63
2023-01-17T18:50:59.243Z,92153.25
2023-01-17T18:53:27.228Z,92150.72
2023-01-17T18:55:57.036Z,92166.69
2023-01-17T18:58:24.758Z,92176.56
2023-01-17T19:00:52.271Z,92180.09
2023-01-17T19:03:20.070Z,92190.44
2023-01-17T19:05:49.451Z,92194.84
2023-01-17T19:08:16.592Z,92192.50
2023-01-17T19:10:43.988Z,92203.50
2023-01-17T19:13:11.240Z,92207.72
2023-01-17T19:15:38.166Z,92194.59
2023-01-17T19:18:05.198Z,92205.19
2023-01-17T19:20:34.312Z,92212.75
2023-01-17T19:23:01.272Z,92203.41
2023-01-17T19:25:29.698Z,92194.16
2023-01-17T19:27:58.272Z,92209.13
2023-01-17T19:30:24.815Z,92212.34
2023-01-17T19:32:52.577Z,92221.34
2023-01-17T19:35:22.463Z,92222.31
2023-01-17T19:37:51.932Z,92218.47
2023-01-17T19:40:19.981Z,92215.59
2023-01-17T19:42:49.372Z,92243.38
2023-01-17T19:45:16.766Z,92233.59
2023-01-17T19:47:43.287Z,92224.16
2023-01-17T19:50:11.892Z,92214.78
2023-01-17T19:52:39.017Z,92225.94
2023-01-17T19:55:09.345Z,92212.91
2023-01-17T19:57:36.740Z,92217.81
2023-01-17T20:00:08.037Z,92225.19
2023-01-17T20:02:39.774Z,92227.66
2023-01-17T20:05:06.746Z,92219.34
2023-01-17T20:07:33.971Z,92222.25
2023-01-17T20:10:00.822Z,92223.09
2023-01-17T20:12:27.579Z,92207.22
2023-01-17T20:14:54.035Z,92199.47
2023-01-17T20:17:21.214Z,92207.72
2023-01-17T20:19:51.062Z,92205.97
2023-01-17T20:22:20.851Z,92201.31
2023-01-17T20:24:47.733Z,92211.09
2023-01-17T20:27:14.333Z,92216.53
2023-01-17T20:29:42.697Z,92214.44
2023-01-17T20:32:09.208Z,92211.41
2023-01-17T20:34:35.630Z,92228.22
2023-01-17T20:37:02.733Z,92226.75
2023-01-17T20:39:29.284Z,92230.66
2023-01-17T20:41:55.730Z,92221.06
2023-01-17T20:44:23.249Z,92219.00
2023-01-17T20:47:04.289Z,92216.88
2023-01-17T20:49:32.013Z,92220.03
2023-01-17T20:52:00.203Z,92222.41
2023-01-17T20:54:27.261Z,92221.00
2023-01-17T20:56:54.628Z,92233.22
2023-01-17T20:59:23.955Z,92231.31
2023-01-17T21:01:53.195Z,92219.06
2023-01-17T21:04:27.788Z,92220.44
2023-01-17T21:06:54.567Z,92215.63
2023-01-17T21:09:21.235Z,92214.34
2023-01-17T21:11:49.892Z,92211.91
2023-01-17T21:14:16.307Z,92219.25
2023-01-17T21:16:45.577Z,92216.31
2023-01-17T21:19:14.421Z,92222.28
2023-01-17T21:21:40.811Z,92213.94
2023-01-17T21:24:07.860Z,92223.16
2023-01-17T21:26:34.276Z,92218.44
2023-01-17T21:29:01.446Z,92226.56
2023-01-17T21:31:32.735Z,92223.69
2023-01-17T21:34:00.949Z,92223.53
2023-01-17T21:36:29.841Z,92224.53
2023-01-17T21:38:58.394Z,92225.22
2023-01-17T21:41:27.700Z,92223.47
2023-01-17T21:43:55.433Z,92225.00
2023-01-17T21:46:22.689Z,92231.47
2023-01-17T21:48:49.351Z,92246.31
2023-01-17T21:51:16.292Z,92226.78
2023-01-17T21:53:43.135Z,92236.09
2023-01-17T21:56:30.888Z,92224.31
2023-01-17T21:58:57.875Z,92227.75
2023-01-17T22:01:29.054Z,92225.00
2023-01-17T22:03:57.260Z,92229.09
2023-01-17T22:06:26.098Z,92232.13
2023-01-17T22:08:52.800Z,92237.75
2023-01-17T22:11:20.916Z,92245.03
2023-01-17T22:13:47.400Z,92245.63
2023-01-17T22:16:15.940Z,92249.88
2023-01-17T22:18:44.156Z,92247.28
2023-01-17T22:21:12.325Z,92253.69
2023-01-17T22:23:44.034Z,92257.19
2023-01-17T22:26:11.117Z,92265.75
2023-01-17T22:28:39.216Z,92261.31
2023-01-17T22:31:08.419Z,92257.88
2023-01-17T22:33:35.334Z,92271.47
2023-01-17T22:36:02.433Z,92265.88
2023-01-17T22:38:29.344Z,92265.94
2023-01-17T22:41:06.921Z,92273.59
2023-01-17T22:43:35.453Z,92267.41
2023-01-17T22:46:02.319Z,92274.22
2023-01-17T22:48:30.675Z,92263.56
2023-01-17T22:50:57.598Z,92263.06
2023-01-17T22:53:25.010Z,92255.94
2023-01-17T22:55:59.259Z,92259.34
2023-01-17T22:58:27.891Z,92248.88
2023-01-17T23:00:56.722Z,92262.84
2023-01-17T23:03:23.225Z,92256.47
2023-01-17T23:05:49.594Z,92271.75
2023-01-17T23:08:15.967Z,92262.06
2023-01-17T23:11:03.347Z,92264.25
2023-01-17T23:13:30.161Z,92259.91
2023-01-17T23:16:15.446Z,92258.72
2023-01-17T23:19:00.350Z,92264.97
2023-01-17T23:21:46.739Z,92258.88
2023-01-17T23:24:13.134Z,92269.88
2023-01-17T23:27:00.724Z,92273.47
2023-01-17T23:29:26.858Z,92274.09
2023-01-17T23:31:53.276Z,92268.47
2023-01-17T23:34:19.789Z,92274.47
2023-01-17T23:36:46.188Z,92284.41
2023-01-17T23:39:12.593Z,92268.38
2023-01-17T23:41:57.733Z,92279.16
2023-01-17T23:44:30.773Z,92280.16
2023-01-17T23:46:58.633Z,92272.47
2023-01-17T23:49:25.093Z,92280.06
2023-01-17T23:51:52.127Z,92280.00
2023-01-17T23:54:18.806Z,92273.81
2023-01-17T23:56:45.854Z,92286.75
2023-01-17T23:59:12.334Z,92283.56
